Time;durP1;ratioP1;P1;durP2;ratioP2;P2;SDS_P1;SDS_P2;PMS_P1;PMS_P2;Temp;Humidity;BMP_temperature;BMP_pressure;BME280_temperature;BME280_humidity;BME280_pressure;Samples;Min_cycle;Max_cycle;Signal;HPM_P1;HPM_P2
2023/09/07 00:01:12;;;;;;;1.50;1.40;;;;;;;19.35;84.76;100979.55;88597;273;136999;-68
2023/09/07 00:03:15;;;;;;;1.50;1.40;;;;;;;19.26;85.54;100983.23;88882;273;25159;-76
2023/09/07 00:05:17;;;;;;;2.40;1.60;;;;;;;19.33;85.01;100986.05;88615;273;138084;-73
2023/09/07 00:07:18;;;;;;;1.40;1.30;;;;;;;19.34;84.66;100986.30;88501;280;22531;-75
2023/09/07 00:09:22;;;;;;;3.70;2.20;;;;;;;19.33;84.20;100986.77;88428;280;137002;-76
2023/09/07 00:11:24;;;;;;;2.40;2.10;;;;;;;19.34;84.14;100994.45;88627;273;23321;-75
2023/09/07 00:13:26;;;;;;;2.20;1.50;;;;;;;19.37;83.83;100996.93;88633;273;136895;-74
2023/09/07 00:15:30;;;;;;;2.70;1.50;;;;;;;19.33;84.27;101000.69;88542;280;24626;-70
2023/09/07 00:17:32;;;;;;;2.90;1.70;;;;;;;19.26;84.62;101002.63;88455;280;137052;-74
2023/09/07 00:19:36;;;;;;;3.50;1.80;;;;;;;19.19;85.19;101005.79;88536;273;24218;-73
2023/09/07 00:21:38;;;;;;;2.00;1.70;;;;;;;19.14;85.67;101005.99;88446;277;137028;-73
2023/09/07 00:23:40;;;;;;;2.70;2.20;;;;;;;19.09;85.59;101007.84;88590;280;24109;-73
2023/09/07 00:25:44;;;;;;;1.80;1.50;;;;;;;18.94;86.72;101015.27;88523;280;137445;-74
2023/09/07 00:27:46;;;;;;;2.10;2.00;;;;;;;18.90;87.21;101015.41;88602;280;25207;-72
2023/09/07 00:29:48;;;;;;;1.90;1.80;;;;;;;18.77;87.48;101005.38;88596;280;136670;-70
2023/09/07 00:31:50;;;;;;;2.30;2.00;;;;;;;18.81;87.70;101019.20;88570;281;22536;-72
2023/09/07 00:33:51;;;;;;;2.00;1.90;;;;;;;18.81;88.06;101022.25;88556;273;137149;-71
2023/09/07 00:35:53;;;;;;;1.90;1.60;;;;;;;18.77;88.19;101025.84;88644;277;22731;-73
2023/09/07 00:37:57;;;;;;;2.50;1.50;;;;;;;18.74;88.28;101029.56;88570;280;136739;-73
2023/09/07 00:39:59;;;;;;;1.80;1.70;;;;;;;18.81;88.00;101036.02;88526;282;23755;-72
2023/09/07 00:42:04;;;;;;;2.50;1.50;;;;;;;18.89;87.31;101034.73;88614;280;22528;-71
2023/09/07 00:44:06;;;;;;;1.80;1.70;;;;;;;18.83;87.48;101037.58;88457;282;137072;-73
2023/09/07 00:46:09;;;;;;;2.30;1.90;;;;;;;18.77;88.04;101033.73;88543;281;26291;-72
2023/09/07 00:48:13;;;;;;;1.90;1.40;;;;;;;18.68;88.59;101036.05;88506;273;137158;-74
2023/09/07 00:50:16;;;;;;;2.50;2.20;;;;;;;18.70;88.50;101033.84;88512;275;22532;-73
2023/09/07 00:52:19;;;;;;;2.40;2.20;;;;;;;18.66;88.82;101031.07;88466;280;139635;-73
2023/09/07 00:54:21;;;;;;;2.70;2.30;;;;;;;18.59;89.17;101032.14;88595;282;22524;-70
2023/09/07 00:56:26;;;;;;;1.90;1.80;;;;;;;18.53;89.95;101040.95;88516;282;137994;-71
2023/09/07 00:58:27;;;;;;;2.20;2.10;;;;;;;18.47;90.58;101038.63;88612;275;22500;-71
2023/09/07 01:00:30;;;;;;;1.60;1.50;;;;;;;18.43;90.28;101035.96;88541;273;136866;-73
2023/09/07 01:02:32;;;;;;;1.60;1.40;;;;;;;18.43;90.01;101033.63;88512;277;25230;-71
2023/09/07 01:04:34;;;;;;;2.10;1.80;;;;;;;18.44;89.77;101035.34;88547;276;138293;-74
2023/09/07 01:06:42;;;;;;;4.10;2.10;;;;;;;18.43;90.25;101033.52;88610;280;22519;-75
2023/09/07 01:08:51;;;;;;;3.60;3.20;;;;;;;18.42;90.35;101032.16;88562;279;137166;-71
2023/09/07 01:10:53;;;;;;;2.30;1.70;;;;;;;18.28;90.53;101031.84;88708;279;22538;-72
2023/09/07 01:12:55;;;;;;;2.10;1.90;;;;;;;18.22;91.04;101033.30;88525;281;137127;-70
2023/09/07 01:14:58;;;;;;;2.60;2.40;;;;;;;18.23;90.76;101034.99;88611;281;25268;-75
2023/09/07 01:17:00;;;;;;;2.40;2.30;;;;;;;18.23;90.50;101038.74;88617;273;137073;-73
2023/09/07 01:19:05;;;;;;;4.10;2.40;;;;;;;18.27;90.07;101036.45;88830;276;24037;-74
2023/09/07 01:21:08;;;;;;;7.10;2.00;;;;;;;18.26;89.69;101037.17;88548;281;136842;-73
2023/09/07 01:23:12;;;;;;;8.00;2.40;;;;;;;18.19;90.45;101037.11;88646;279;24348;-75
2023/09/07 01:25:14;;;;;;;4.10;3.70;;;;;;;18.14;91.01;101040.39;88656;279;137098;-74
2023/09/07 01:27:16;;;;;;;2.40;2.30;;;;;;;18.09;91.56;101039.32;88803;278;25323;-72
2023/09/07 01:29:18;;;;;;;1.80;1.70;;;;;;;17.98;91.42;101028.41;88540;272;136854;-70
2023/09/07 01:31:20;;;;;;;3.60;1.60;;;;;;;18.02;91.96;101040.34;88639;279;24096;-74
2023/09/07 01:33:21;;;;;;;2.40;1.90;;;;;;;17.98;92.48;101043.36;88438;274;137390;-71
2023/09/07 01:35:26;;;;;;;1.90;1.80;;;;;;;17.90;93.06;101042.87;88629;280;22618;-71
2023/09/07 01:37:28;;;;;;;2.80;2.60;;;;;;;17.86;93.77;101049.84;88436;274;136541;-71
2023/09/07 01:39:31;;;;;;;3.00;2.30;;;;;;;17.81;93.86;101050.96;88512;280;22523;-71
2023/09/07 01:41:33;;;;;;;1.90;1.80;;;;;;;17.73;94.39;101056.29;88503;282;136713;-72
2023/09/07 01:43:36;;;;;;;2.30;2.20;;;;;;;17.66;95.26;101060.81;88815;273;22558;-73
2023/09/07 01:45:37;;;;;;;6.00;2.20;;;;;;;17.65;95.15;101060.04;88506;280;137107;-73
2023/09/07 01:47:39;;;;;;;2.20;2.00;;;;;;;17.64;95.20;101061.23;88470;279;22522;-70
2023/09/07 01:49:41;;;;;;;3.30;2.50;;;;;;;17.63;95.38;101064.70;88868;273;138113;-72
2023/09/07 01:51:43;;;;;;;2.90;2.40;;;;;;;17.67;95.11;101063.52;88572;280;24399;-71
2023/09/07 01:53:48;;;;;;;3.30;2.40;;;;;;;17.62;95.80;101065.16;88443;282;138494;-71
2023/09/07 01:55:53;;;;;;;6.10;2.40;;;;;;;17.60;95.94;101058.61;88571;277;22546;-70
2023/09/07 01:57:55;;;;;;;2.10;2.00;;;;;;;17.56;96.49;101059.97;88624;281;137422;-72
2023/09/07 01:59:58;;;;;;;2.90;2.40;;;;;;;17.55;96.45;101059.84;88612;278;23587;-72
2023/09/07 02:02:00;;;;;;;2.10;2.00;;;;;;;17.51;96.43;101062.57;88557;278;137661;-69
2023/09/07 02:04:04;;;;;;;1.60;1.50;;;;;;;17.46;97.24;101060.56;88597;275;136933;-70
2023/09/07 02:06:06;;;;;;;2.30;2.20;;;;;;;17.50;96.98;101062.09;88572;280;23712;-73
2023/09/07 02:08:08;;;;;;;1.90;1.90;;;;;;;17.49;97.08;101066.20;88526;280;137346;-76
2023/09/07 02:10:10;;;;;;;2.30;2.10;;;;;;;17.44;97.51;101063.23;88707;280;24914;-74
2023/09/07 02:12:12;;;;;;;2.10;2.00;;;;;;;17.36;97.87;101066.31;88445;281;137147;-72
2023/09/07 02:14:15;;;;;;;2.90;2.30;;;;;;;17.31;98.25;101069.15;88573;273;22538;-73
2023/09/07 02:16:18;;;;;;;2.30;1.90;;;;;;;17.28;98.49;101067.80;89357;280;137199;-70
2023/09/07 02:18:20;;;;;;;2.40;2.20;;;;;;;17.27;98.50;101068.25;88821;281;22527;-71
2023/09/07 02:20:22;;;;;;;2.40;2.20;;;;;;;17.29;98.50;101071.98;88591;280;138452;-71
2023/09/07 02:22:24;;;;;;;2.40;2.20;;;;;;;17.21;99.36;101074.53;88677;280;25289;-73
2023/09/07 02:24:25;;;;;;;3.60;2.40;;;;;;;17.13;99.95;101071.35;88555;277;138274;-71
2023/09/07 02:26:28;;;;;;;2.10;2.00;;;;;;;17.09;100.00;101070.77;88527;273;25189;-69
2023/09/07 02:28:30;;;;;;;2.60;2.40;;;;;;;17.08;100.00;101068.05;88447;274;137669;-65
2023/09/07 02:30:34;;;;;;;2.20;2.00;;;;;;;17.08;100.00;101071.23;88723;280;22595;-60
2023/09/07 02:32:36;;;;;;;1.90;1.80;;;;;;;17.06;100.00;101073.58;88480;273;138497;-60
2023/09/07 02:34:37;;;;;;;2.50;2.30;;;;;;;17.08;100.00;101075.47;88517;273;22561;-61
2023/09/07 02:36:42;;;;;;;2.40;2.20;;;;;;;17.08;100.00;101078.70;88435;281;137044;-60
2023/09/07 02:38:43;;;;;;;2.50;2.30;;;;;;;17.11;100.00;101078.02;88625;273;22517;-61
2023/09/07 02:40:48;;;;;;;3.20;2.30;;;;;;;17.12;100.00;101079.42;88462;282;141380;-60
2023/09/07 02:42:49;;;;;;;2.70;2.50;;;;;;;17.11;100.00;101080.77;88676;273;23756;-68
2023/09/07 02:44:51;;;;;;;2.20;2.00;;;;;;;17.10;100.00;101081.29;88409;280;138528;-59
2023/09/07 02:46:53;;;;;;;3.30;2.10;;;;;;;17.09;100.00;101081.77;88657;278;22630;-60
2023/09/07 02:48:57;;;;;;;2.60;2.40;;;;;;;17.00;100.00;101073.13;88427;274;138467;-61
2023/09/07 02:51:00;;;;;;;3.30;2.20;;;;;;;17.05;100.00;101087.66;88602;273;23877;-62
2023/09/07 02:53:04;;;;;;;3.50;2.30;;;;;;;17.00;100.00;101087.30;91190;280;137367;-59
2023/09/07 02:55:06;;;;;;;3.70;2.80;;;;;;;16.96;100.00;101086.70;88484;280;22242;-60
2023/09/07 02:57:09;;;;;;;2.80;2.50;;;;;;;16.88;100.00;101089.95;88514;273;137326;-78
2023/09/07 02:59:10;;;;;;;2.60;2.40;;;;;;;16.81;100.00;101094.81;88583;282;22524;-78
2023/09/07 03:01:13;;;;;;;3.90;2.60;;;;;;;16.71;100.00;101090.50;88393;274;137218;-74
2023/09/07 03:03:15;;;;;;;4.10;2.70;;;;;;;16.63;100.00;101094.88;88647;273;24016;-79
2023/09/07 03:05:18;;;;;;;2.30;2.10;;;;;;;16.57;100.00;101094.42;88541;277;138597;-74
2023/09/07 03:07:20;;;;;;;2.80;2.60;;;;;;;16.54;100.00;101097.28;88677;280;22533;-77
2023/09/07 03:09:22;;;;;;;3.80;2.30;;;;;;;16.53;100.00;101097.82;88653;279;137421;-75
2023/09/07 03:11:25;;;;;;;3.10;2.90;;;;;;;16.54;100.00;101103.98;88620;280;22527;-76
2023/09/07 03:13:27;;;;;;;2.60;2.00;;;;;;;16.51;100.00;101104.17;88649;272;138483;-76
2023/09/07 03:15:29;;;;;;;3.10;2.80;;;;;;;16.46;100.00;101109.75;88938;272;22613;-80
2023/09/07 03:17:31;;;;;;;2.50;2.20;;;;;;;16.42;100.00;101110.86;89309;280;137247;-76
2023/09/07 03:19:37;;;;;;;6.50;2.60;;;;;;;16.39;100.00;101115.42;89579;280;22542;-76
2023/09/07 03:21:40;;;;;;;3.80;2.80;;;;;;;16.35;100.00;101115.34;89704;275;137021;-76
2023/09/07 03:23:44;;;;;;;2.80;2.60;;;;;;;16.32;100.00;101115.34;89609;281;24061;-76
2023/09/07 03:25:48;;;;;;;4.30;3.00;;;;;;;16.30;100.00;101115.89;89682;277;141178;-76
2023/09/07 03:27:51;;;;;;;3.60;2.90;;;;;;;16.27;100.00;101121.89;89025;278;22572;-75
2023/09/07 03:29:53;;;;;;;2.20;2.10;;;;;;;16.22;100.00;101124.09;89952;280;136980;-77
2023/09/07 03:31:55;;;;;;;5.00;3.00;;;;;;;16.18;100.00;101130.20;88631;282;24176;-77
2023/09/07 03:33:57;;;;;;;3.90;3.50;;;;;;;16.15;100.00;101129.63;88402;282;138018;-75
2023/09/07 03:35:59;;;;;;;3.30;3.10;;;;;;;16.10;100.00;101135.08;88612;281;25245;-73
2023/09/07 03:38:04;;;;;;;5.20;3.00;;;;;;;16.09;100.00;101140.20;88626;277;24260;-76
2023/09/07 03:40:08;;;;;;;3.40;3.20;;;;;;;16.05;100.00;101142.30;88601;279;137311;-73
2023/09/07 03:42:11;;;;;;;3.30;3.00;;;;;;;16.04;100.00;101140.33;88576;281;23066;-74
2023/09/07 03:44:13;;;;;;;3.50;2.60;;;;;;;16.05;100.00;101144.99;88471;273;136975;-76
2023/09/07 03:48:46;;;;;;;3.00;2.80;;;;;;;16.13;100.00;101147.04;86646;303;617789;-75
2023/09/07 03:50:48;;;;;;;3.10;2.90;;;;;;;16.28;100.00;101148.38;87964;285;25503;-75
2023/09/07 03:52:50;;;;;;;3.90;3.30;;;;;;;16.43;100.00;101146.77;87803;289;137826;-76
2023/09/07 03:54:56;;;;;;;2.70;2.40;;;;;;;16.63;100.00;101147.30;88040;294;23329;-75
2023/09/07 03:56:59;;;;;;;9.30;2.90;;;;;;;16.83;100.00;101144.14;88000;286;136341;-73
2023/09/07 03:59:00;;;;;;;2.90;2.60;;;;;;;17.02;100.00;101154.21;87889;292;23993;-75
2023/09/07 04:01:02;;;;;;;2.50;2.40;;;;;;;17.13;100.00;101159.83;87830;289;136481;-75
2023/09/07 04:03:04;;;;;;;2.80;2.70;;;;;;;17.28;100.00;101163.30;87342;284;641568;-76
2023/09/07 04:05:06;;;;;;;3.40;2.40;;;;;;;17.43;100.00;101163.16;87880;287;136984;-74
2023/09/07 04:07:08;;;;;;;5.00;2.90;;;;;;;17.56;100.00;101168.70;87944;291;24120;-82
2023/09/07 04:09:10;;;;;;;2.40;2.20;;;;;;;17.74;100.00;101166.50;87934;285;137914;-82
2023/09/07 04:11:12;;;;;;;3.90;2.80;;;;;;;17.94;99.07;101168.02;88263;286;24024;-80
2023/09/07 04:13:15;;;;;;;4.30;2.10;;;;;;;18.06;96.72;101169.11;88204;278;136678;-81
2023/09/07 04:15:16;;;;;;;2.60;2.30;;;;;;;18.19;95.16;101173.77;88207;286;25874;-81
2023/09/07 04:17:18;;;;;;;4.00;2.40;;;;;;;18.31;93.97;101175.87;88164;282;138191;-78
2023/09/07 04:19:20;;;;;;;4.20;2.80;;;;;;;18.44;92.50;101181.27;88270;278;22551;-80
2023/09/07 04:21:23;;;;;;;2.30;1.90;;;;;;;18.56;91.15;101175.76;88042;287;137197;-75
2023/09/07 04:23:27;;;;;;;2.10;2.00;;;;;;;18.74;89.32;101177.02;88168;279;22537;-74
2023/09/07 04:25:29;;;;;;;2.50;2.10;;;;;;;19.00;87.98;101178.11;88130;278;136712;-76
2023/09/07 04:27:31;;;;;;;2.50;2.30;;;;;;;19.35;85.42;101171.48;88278;285;22548;-78
2023/09/07 04:29:36;;;;;;;2.30;2.10;;;;;;;19.75;82.30;101174.27;88320;285;135784;-76
2023/09/07 04:31:40;;;;;;;2.40;2.30;;;;;;;20.14;80.28;101176.52;88123;279;22539;-73
2023/09/07 04:33:42;;;;;;;3.90;1.80;;;;;;;20.47;77.19;101179.34;88336;283;136046;-77
2023/09/07 04:35:44;;;;;;;5.10;1.50;;;;;;;20.71;76.35;101177.51;88045;280;22600;-73
2023/09/07 04:37:45;;;;;;;3.80;2.30;;;;;;;20.99;74.05;101175.76;88026;279;137594;-71
2023/09/07 04:39:53;;;;;;;2.60;2.40;;;;;;;21.16;72.18;101180.94;88236;285;22541;-72
2023/09/07 04:41:55;;;;;;;4.90;2.30;;;;;;;21.34;71.67;101183.17;88131;277;136786;-74
2023/09/07 04:43:57;;;;;;;1.10;1.00;;;;;;;21.61;69.90;101187.36;88275;280;26282;-67
2023/09/07 04:45:59;;;;;;;2.50;2.30;;;;;;;21.86;68.30;101183.23;89403;284;137922;-73
2023/09/07 04:48:01;;;;;;;1.70;1.60;;;;;;;22.14;68.20;101186.52;88107;279;22755;-68
2023/09/07 04:50:06;;;;;;;4.10;2.00;;;;;;;22.59;65.08;101185.48;88214;278;22530;-75
2023/09/07 04:52:09;;;;;;;5.20;2.00;;;;;;;22.95;63.15;101185.74;88963;282;135979;-82
2023/09/07 04:54:11;;;;;;;4.10;1.70;;;;;;;23.18;61.94;101187.55;88839;277;22551;-77
2023/09/07 04:56:13;;;;;;;2.40;1.70;;;;;;;23.34;60.19;101190.26;88698;277;136821;-72
2023/09/07 04:58:16;;;;;;;2.30;1.10;;;;;;;23.31;60.06;101192.61;89010;282;22784;-73
2023/09/07 05:00:18;;;;;;;1.60;1.40;;;;;;;23.47;59.90;101196.13;88455;282;137685;-75
2023/09/07 05:02:20;;;;;;;2.70;1.80;;;;;;;23.80;58.35;101189.98;88393;282;22406;-76
2023/09/07 05:04:22;;;;;;;2.50;2.00;;;;;;;23.97;57.18;101187.27;88263;277;136218;-77
2023/09/07 05:06:26;;;;;;;2.20;1.40;;;;;;;24.07;57.39;101184.11;88676;286;22626;-75
2023/09/07 05:08:28;;;;;;;2.30;1.60;;;;;;;24.36;55.93;101185.89;88366;279;136129;-75
2023/09/07 05:10:36;;;;;;;1.40;1.00;;;;;;;24.57;54.89;101183.02;88291;278;25223;-78
2023/09/07 05:12:38;;;;;;;7.30;1.50;;;;;;;24.81;53.34;101182.38;88365;277;137241;-77
2023/09/07 05:14:39;;;;;;;4.30;1.40;;;;;;;25.09;52.46;101183.62;88610;281;22533;-79
2023/09/07 05:16:44;;;;;;;1.40;1.10;;;;;;;25.23;51.49;101186.38;88502;277;137009;-79
2023/09/07 05:18:46;;;;;;;1.40;0.80;;;;;;;25.25;50.85;101183.99;88708;285;23716;-78
2023/09/07 05:20:51;;;;;;;2.70;1.50;;;;;;;25.41;50.71;101188.70;88222;281;135839;-74
2023/09/07 05:22:53;;;;;;;2.20;1.00;;;;;;;25.80;49.58;101187.02;88265;278;25998;-76
2023/09/07 05:24:55;;;;;;;2.90;1.00;;;;;;;26.08;47.71;101188.29;88536;281;136940;-78
2023/09/07 05:26:57;;;;;;;1.30;1.00;;;;;;;26.14;47.64;101190.16;88800;282;22627;-79
2023/09/07 05:28:59;;;;;;;2.20;1.20;;;;;;;26.19;47.35;101190.43;88518;278;135711;-81
2023/09/07 05:31:00;;;;;;;1.90;0.70;;;;;;;26.34;47.37;101187.76;88659;281;22530;-79
2023/09/07 05:33:03;;;;;;;1.30;1.00;;;;;;;26.60;46.83;101192.84;88163;283;136751;-77
2023/09/07 05:35:09;;;;;;;4.80;1.40;;;;;;;26.83;46.09;101187.41;88314;278;22574;-77
2023/09/07 05:37:10;;;;;;;6.50;1.90;;;;;;;26.66;45.65;101189.05;88203;277;135863;-78
2023/09/07 05:39:13;;;;;;;2.50;0.90;;;;;;;26.22;46.60;101187.38;88310;277;22534;-78
2023/09/07 05:41:15;;;;;;;3.30;1.30;;;;;;;25.87;47.26;101189.39;88445;279;135758;-78
2023/09/07 05:43:16;;;;;;;2.60;1.00;;;;;;;25.50;48.54;101196.38;88433;278;25122;-78
2023/09/07 05:45:20;;;;;;;2.70;1.40;;;;;;;25.20;49.27;101197.38;88143;278;136269;-79
2023/09/07 05:47:26;;;;;;;1.20;1.10;;;;;;;24.94;50.41;101197.07;88311;284;23716;-75
2023/09/07 05:49:28;;;;;;;4.10;1.20;;;;;;;24.89;50.53;101198.95;88499;276;135998;-77
2023/09/07 05:51:30;;;;;;;2.60;0.80;;;;;;;24.85;50.83;101198.27;88423;281;22872;-76
2023/09/07 05:53:32;;;;;;;1.00;0.90;;;;;;;24.92;50.33;101202.52;88026;283;135633;-77
2023/09/07 05:55:34;;;;;;;2.90;1.20;;;;;;;24.94;50.53;101200.95;88095;282;24066;-80
2023/09/07 05:57:36;;;;;;;3.20;1.00;;;;;;;24.92;50.70;101192.25;88663;279;135679;-82
2023/09/07 05:59:38;;;;;;;1.80;1.10;;;;;;;25.02;50.52;101202.40;88676;279;22621;-77
2023/09/07 06:01:40;;;;;;;1.50;0.90;;;;;;;25.07;50.21;101201.00;88520;279;135610;-78
2023/09/07 06:03:42;;;;;;;1.20;1.10;;;;;;;24.95;50.30;101208.30;88705;278;25236;-80
2023/09/07 06:05:45;;;;;;;2.30;1.20;;;;;;;24.80;50.75;101203.30;88582;278;135673;-80
2023/09/07 06:07:46;;;;;;;1.30;1.10;;;;;;;24.98;50.68;101209.76;88606;286;23302;-80
2023/09/07 06:09:49;;;;;;;1.80;1.10;;;;;;;25.20;49.63;101214.17;88718;286;135664;-78
2023/09/07 06:11:51;;;;;;;4.10;1.50;;;;;;;25.16;49.81;101209.63;88838;286;22537;-79
2023/09/07 06:13:53;;;;;;;1.60;1.30;;;;;;;25.16;49.55;101206.74;88846;277;137768;-83
2023/09/07 06:15:54;;;;;;;3.80;1.20;;;;;;;25.24;49.30;101211.22;88602;282;24473;-80
2023/09/07 06:17:57;;;;;;;3.00;1.60;;;;;;;25.02;49.47;101211.89;88640;282;136480;-79
2023/09/07 06:19:58;;;;;;;4.10;1.20;;;;;;;24.74;50.31;101218.91;88652;287;23408;-80
2023/09/07 06:22:01;;;;;;;1.10;1.10;;;;;;;24.30;51.29;101217.15;88681;282;136679;-79
2023/09/07 06:24:06;;;;;;;1.80;1.50;;;;;;;24.03;52.51;101223.94;88358;282;136092;-76
2023/09/07 06:26:08;;;;;;;1.90;1.40;;;;;;;24.09;52.87;101229.19;88827;284;22547;-78
2023/09/07 06:28:09;;;;;;;3.50;1.30;;;;;;;24.17;52.32;101214.66;88914;284;136974;-80
2023/09/07 06:30:11;;;;;;;7.40;1.50;;;;;;;24.11;52.11;101232.63;88635;277;22546;-78
2023/09/07 06:32:14;;;;;;;3.00;1.80;;;;;;;23.90;52.97;101234.04;88508;277;137439;-77
2023/09/07 06:34:16;;;;;;;2.20;1.00;;;;;;;23.67;53.47;101235.73;88944;285;22482;-75
2023/09/07 06:36:18;;;;;;;1.10;1.00;;;;;;;23.50;54.09;101236.06;88949;278;136606;-75
2023/09/07 06:38:35;;;;;;;2.00;1.60;;;;;;;23.45;54.11;101241.70;89126;285;24555;-74
2023/09/07 06:40:39;;;;;;;2.00;1.90;;;;;;;23.51;54.25;101237.21;88274;277;137010;-74
2023/09/07 06:42:41;;;;;;;1.30;0.80;;;;;;;23.50;53.97;101236.88;88428;285;25186;-76
2023/09/07 06:44:47;;;;;;;1.50;1.20;;;;;;;23.53;53.60;101239.02;88488;283;136123;-75
2023/09/07 06:46:49;;;;;;;1.10;0.90;;;;;;;23.55;53.46;101243.13;88470;285;22609;-76
2023/09/07 06:48:53;;;;;;;1.50;0.80;;;;;;;23.47;53.13;101247.71;88388;284;135917;-75
2023/09/07 06:50:55;;;;;;;3.30;1.50;;;;;;;23.39;53.30;101250.42;88242;285;24037;-76
2023/09/07 06:52:57;;;;;;;1.10;1.00;;;;;;;23.24;53.39;101247.58;88592;284;136720;-78
2023/09/07 06:54:59;;;;;;;3.50;1.30;;;;;;;23.03;54.00;101251.28;88717;284;22552;-78
2023/09/07 06:57:01;;;;;;;0.70;0.70;;;;;;;22.79;53.73;101260.26;88487;280;136063;-75
2023/09/07 06:59:03;;;;;;;1.60;0.80;;;;;;;22.55;54.46;101254.95;88281;278;22635;-78
2023/09/07 07:01:05;;;;;;;7.10;1.10;;;;;;;22.43;54.97;101258.50;88282;285;135935;-78
2023/09/07 07:03:08;;;;;;;4.80;0.90;;;;;;;22.27;55.64;101253.71;88360;285;24139;-80
2023/09/07 07:05:10;;;;;;;4.10;0.90;;;;;;;22.10;55.98;101259.09;88440;277;141532;-78
2023/09/07 07:07:12;;;;;;;1.70;1.00;;;;;;;21.90;56.75;101256.48;88285;278;25289;-79
2023/09/07 07:09:14;;;;;;;2.80;1.10;;;;;;;21.77;57.41;101255.30;88369;285;135739;-79
2023/09/07 07:11:17;;;;;;;2.20;1.00;;;;;;;21.70;57.40;101256.13;88783;277;22535;-78
2023/09/07 07:13:19;;;;;;;3.70;0.70;;;;;;;21.71;57.21;101256.70;88456;273;136454;-77
2023/09/07 07:15:21;;;;;;;1.10;0.80;;;;;;;21.72;56.68;101253.84;88638;280;22535;-75
2023/09/07 07:17:24;;;;;;;5.20;1.10;;;;;;;21.69;56.46;101255.19;88523;277;136893;-80
2023/09/07 07:19:26;;;;;;;1.60;0.90;;;;;;;21.56;56.83;101256.08;88814;273;22575;-74
2023/09/07 07:21:27;;;;;;;0.50;0.50;;;;;;;21.38;57.55;101252.84;88525;277;137693;-73
2023/09/07 07:23:29;;;;;;;5.80;0.60;;;;;;;21.26;57.26;101257.66;88588;283;22551;-74
2023/09/07 07:25:33;;;;;;;4.60;0.60;;;;;;;21.12;56.53;101256.88;88480;273;136301;-74
2023/09/07 07:27:36;;;;;;;1.00;0.70;;;;;;;20.95;56.80;101249.33;88548;282;22533;-73
2023/09/07 07:29:38;;;;;;;6.60;1.40;;;;;;;20.88;57.34;101249.67;88386;281;136593;-79
2023/09/07 07:31:40;;;;;;;1.90;0.60;;;;;;;20.85;56.18;101248.17;88876;274;24025;-77
2023/09/07 07:33:42;;;;;;;2.20;0.90;;;;;;;20.81;56.32;101252.02;88449;275;136381;-74
2023/09/07 07:35:44;;;;;;;0.90;0.40;;;;;;;20.76;55.86;101255.48;88571;279;22532;-75
2023/09/07 07:37:46;;;;;;;0.90;0.50;;;;;;;20.69;55.64;101257.87;88869;278;136898;-74
2023/09/07 07:39:47;;;;;;;2.10;0.50;;;;;;;20.64;55.85;101256.44;88613;279;25252;-74
2023/09/07 07:41:50;;;;;;;1.00;0.80;;;;;;;20.70;55.72;101256.95;88434;274;136184;-75
2023/09/07 07:43:52;;;;;;;1.50;0.60;;;;;;;20.76;56.07;101259.75;88502;275;24557;-72
2023/09/07 07:45:54;;;;;;;3.00;0.40;;;;;;;20.74;56.56;101264.11;88454;282;136000;-74
2023/09/07 07:47:57;;;;;;;1.00;0.40;;;;;;;20.71;55.41;101261.23;88558;278;22545;-72
2023/09/07 07:49:59;;;;;;;1.30;0.30;;;;;;;20.65;54.69;101256.09;88666;281;135988;-73
2023/09/07 07:52:00;;;;;;;2.00;0.40;;;;;;;20.66;54.21;101258.85;88423;273;22714;-76
2023/09/07 07:54:03;;;;;;;1.30;0.40;;;;;;;20.69;53.93;101261.91;88700;279;24027;-75
2023/09/07 07:56:05;;;;;;;1.20;0.60;;;;;;;20.73;53.84;101261.59;88296;275;136051;-72
2023/09/07 07:58:09;;;;;;;1.00;0.90;;;;;;;20.76;53.93;101261.81;88545;273;24063;-72
2023/09/07 08:00:13;;;;;;;1.40;0.80;;;;;;;20.82;54.07;101261.47;88550;274;136128;-73
2023/09/07 08:02:17;;;;;;;1.00;0.80;;;;;;;20.87;54.40;101258.81;88570;279;22615;-74
2023/09/07 08:04:22;;;;;;;4.00;0.60;;;;;;;20.84;53.32;101265.04;88606;278;136689;-71
2023/09/07 08:06:25;;;;;;;0.50;0.30;;;;;;;20.80;52.70;101263.23;88441;281;22534;-75
2023/09/07 08:08:27;;;;;;;1.20;0.40;;;;;;;20.74;53.31;101259.35;88492;274;136208;-76
2023/09/07 08:10:28;;;;;;;2.10;0.60;;;;;;;20.75;53.23;101254.20;88444;282;25222;-74
2023/09/07 08:12:33;;;;;;;1.50;0.70;;;;;;;20.79;53.12;101253.06;88572;274;136096;-75
2023/09/07 08:14:35;;;;;;;1.60;0.40;;;;;;;20.84;53.32;101255.77;88468;274;22652;-72
2023/09/07 08:16:37;;;;;;;2.70;0.30;;;;;;;20.90;52.92;101251.58;88563;277;136066;-72
2023/09/07 08:18:40;;;;;;;0.80;0.20;;;;;;;20.96;52.13;101257.31;88472;282;25168;-72
2023/09/07 08:20:43;;;;;;;1.60;0.50;;;;;;;21.04;51.57;101254.55;88333;281;135926;-69
2023/09/07 08:22:46;;;;;;;2.30;0.50;;;;;;;21.11;50.65;101258.14;88458;281;22617;-70
2023/09/07 08:24:49;;;;;;;1.00;0.30;;;;;;;21.14;50.37;101254.41;88312;275;136327;-70
2023/09/07 08:26:51;;;;;;;1.20;0.50;;;;;;;21.09;50.02;101249.75;88519;281;25259;-71
2023/09/07 08:28:52;;;;;;;0.90;0.30;;;;;;;21.06;49.98;101261.02;88361;274;136308;-72
2023/09/07 08:30:54;;;;;;;1.10;0.20;;;;;;;21.10;50.04;101270.88;88426;277;24054;-67
2023/09/07 08:32:57;;;;;;;4.10;0.20;;;;;;;21.07;49.94;101269.64;88633;273;136407;-66
2023/09/07 08:35:01;;;;;;;1.60;0.40;;;;;;;21.04;49.79;101268.94;88677;275;26873;-69
2023/09/07 08:37:05;;;;;;;1.20;0.50;;;;;;;20.97;49.70;101266.93;88350;273;136388;-73
2023/09/07 08:39:10;;;;;;;0.70;0.20;;;;;;;21.01;49.39;101276.50;88869;281;24136;-69
2023/09/07 08:41:13;;;;;;;3.70;0.20;;;;;;;20.95;49.82;101266.88;88368;278;136369;-71
2023/09/07 08:43:16;;;;;;;3.10;0.60;;;;;;;20.93;48.91;101271.00;88879;278;25278;-75
2023/09/07 08:45:21;;;;;;;0.80;0.40;;;;;;;20.98;48.77;101275.34;90050;278;136050;-75
2023/09/07 08:47:25;;;;;;;1.60;0.30;;;;;;;21.00;48.62;101276.96;88566;281;22677;-70
2023/09/07 08:49:28;;;;;;;3.00;0.60;;;;;;;20.98;48.98;101269.55;88492;275;136048;-72
2023/09/07 08:51:36;;;;;;;1.60;0.50;;;;;;;20.93;49.23;101268.79;88553;274;22531;-71
2023/09/07 08:53:39;;;;;;;2.40;0.30;;;;;;;21.00;49.48;101275.34;88844;275;136407;-75
2023/09/07 08:55:41;;;;;;;0.50;0.40;;;;;;;21.04;49.08;101276.80;89032;281;22557;-74
2023/09/07 08:57:43;;;;;;;0.60;0.40;;;;;;;21.10;48.76;101280.13;88414;273;137138;-71
2023/09/07 08:59:44;;;;;;;2.80;0.40;;;;;;;21.09;49.06;101269.64;88427;273;22540;-72
2023/09/07 09:01:46;;;;;;;1.80;0.20;;;;;;;21.16;49.07;101273.98;89024;274;136155;-72
2023/09/07 09:03:49;;;;;;;2.60;0.40;;;;;;;21.26;47.12;101277.27;88389;275;22545;-72
2023/09/07 09:05:53;;;;;;;3.50;0.20;;;;;;;21.26;46.65;101275.89;88680;275;137347;-73
2023/09/07 09:08:04;;;;;;;4.00;0.30;;;;;;;21.25;45.56;101277.66;88434;275;25375;-71
2023/09/07 09:10:09;;;;;;;2.70;0.30;;;;;;;21.24;45.42;101279.47;88987;277;22531;-69
2023/09/07 09:12:12;;;;;;;2.40;0.50;;;;;;;21.22;45.57;101282.64;88428;277;136521;-71
2023/09/07 09:14:18;;;;;;;3.50;0.50;;;;;;;21.20;45.51;101286.97;88943;277;25128;-73
2023/09/07 09:16:21;;;;;;;0.90;0.60;;;;;;;21.17;45.14;101289.23;89066;273;137740;-76
2023/09/07 09:18:22;;;;;;;1.60;0.50;;;;;;;21.11;45.59;101278.95;89045;279;22538;-72
2023/09/07 09:20:28;;;;;;;0.70;0.40;;;;;;;21.12;45.96;101279.52;88861;273;139758;-70
2023/09/07 09:22:30;;;;;;;2.30;0.20;;;;;;;21.17;45.39;101279.58;88919;275;23384;-74
2023/09/07 09:24:34;;;;;;;0.60;0.20;;;;;;;21.25;45.63;101278.23;88320;277;136261;-72
2023/09/07 09:26:37;;;;;;;1.50;0.20;;;;;;;21.36;45.17;101278.16;88842;278;22600;-71
2023/09/07 09:28:39;;;;;;;0.20;0.20;;;;;;;21.44;43.65;101277.34;88685;281;136295;-71
2023/09/07 09:30:43;;;;;;;0.30;0.20;;;;;;;21.46;41.23;101282.30;91318;281;22965;-73
2023/09/07 09:32:46;;;;;;;3.80;0.20;;;;;;;21.43;39.52;101282.31;89173;281;137143;-68
2023/09/07 09:34:48;;;;;;;0.80;0.10;;;;;;;21.40;38.21;101284.61;88388;281;25267;-67